Calvin, Kentucky
Current Conditions -  °F | °C
As of 11:55 PM on Sunday 21 Dec 2014 (Local Time) from K1A6 Reporting Station
Overcast Overcast  
Wind Chill: 38°   Ceiling: 4400
Heat Index: 38°   Visibility: 10mi
Dew Point: 35°   Wind: 0mph
Humidity: 89%   Direction: NA
Pressure: 30.11"   Gusts: NA
Location:  36.72°N, 83.62°W
Report Text: K1A6 220455Z AUTO 00000KT 10SM OVC044 04/02 A3011 RMK AO2 T00350019
Loading
Personal Weather Stations






























Interactive Weather Map New forecast layout! Learn more

10-Day Weather Forecast

Advertisements
Track Severe Weather on mobile